ATL weather

Hartsfield Jackson Atlanta International Airport
Atlanta, Georgia, United States

Public forecast

Using degrees Fahrenheit for public forecast. Weather courtesy of forecast.io.

METAR (pilot weather report)

Retrieved 2017/12/15 21:52 UTC (15 minutes ago):

KATL 152152Z 30012KT 10SM FEW120 BKN150 BKN250 03/M04 A3011 RMK AO2 SLP203 VIRGA OHD / ALQDS T00331044

TAF (pilot weather forecast)

Retrieved 2017/12/15 18:27 UTC (4 hours ago):

TAF KATL 151725Z 1518/1624 30012G20KT P6SM SCT120 BKN250 FM160000 31010KT P6SM BKN250 FM160300 30004KT P6SM SCT250 FM161900 26006KT P6SM SCT250